Time;durP1;ratioP1;P1;durP2;ratioP2;P2;SDS_P1;SDS_P2;PMS_P1;PMS_P2;Temp;Humidity;BMP_temperature;BMP_pressure;BME280_temperature;BME280_humidity;BME280_pressure;Samples;Min_cycle;Max_cycle;Signal;HPM_P1;HPM_P2
2023/12/30 00:01:21;;;;;;;6.03;0.50;;;7.80;78.50;;;;;;6209904;22;20070;-77
2023/12/30 00:03:49;;;;;;;5.55;0.57;;;7.70;78.50;;;;;;6183162;23;20021;-76
2023/12/30 00:06:18;;;;;;;7.90;0.70;;;7.70;78.30;;;;;;6207947;22;20553;-76
2023/12/30 00:08:45;;;;;;;3.60;0.53;;;7.60;78.40;;;;;;6207864;23;20024;-76
2023/12/30 00:11:12;;;;;;;6.55;0.47;;;7.60;78.40;;;;;;6181457;23;20229;-76
2023/12/30 00:13:39;;;;;;;7.30;0.77;;;7.60;78.60;;;;;;6209979;22;20056;-75
2023/12/30 00:16:07;;;;;;;4.00;0.47;;;7.60;78.70;;;;;;6208923;22;20734;-76
2023/12/30 00:18:34;;;;;;;5.97;0.70;;;7.50;78.70;;;;;;6207602;23;20952;-76
2023/12/30 00:21:02;;;;;;;6.87;0.93;;;7.50;78.70;;;;;;6208924;22;20103;-76
2023/12/30 00:23:29;;;;;;;6.57;0.80;;;7.50;78.60;;;;;;6204723;23;20300;-75
2023/12/30 00:25:56;;;;;;;6.50;0.90;;;7.50;78.60;;;;;;6207215;23;20060;-75
2023/12/30 00:28:23;;;;;;;6.68;0.60;;;7.50;78.40;;;;;;6209597;22;20087;-75
2023/12/30 00:30:50;;;;;;;8.82;0.95;;;7.50;78.10;;;;;;6207178;23;20059;-76
2023/12/30 00:33:17;;;;;;;6.03;0.53;;;7.50;78.00;;;;;;6206614;23;20058;-75
2023/12/30 00:35:45;;;;;;;4.32;0.75;;;7.50;78.10;;;;;;6208012;23;20318;-77
2023/12/30 00:38:14;;;;;;;6.00;0.47;;;7.50;77.80;;;;;;6182711;23;20721;-75
2023/12/30 00:40:41;;;;;;;3.33;0.47;;;7.50;77.80;;;;;;6179180;23;20044;-75
2023/12/30 00:43:08;;;;;;;7.25;0.70;;;7.50;77.80;;;;;;6182444;23;20025;-75
2023/12/30 00:45:35;;;;;;;6.37;0.87;;;7.50;77.70;;;;;;6207569;23;20547;-75
2023/12/30 00:48:03;;;;;;;5.55;0.68;;;7.50;77.50;;;;;;6182833;23;20244;-76
2023/12/30 00:50:30;;;;;;;6.00;0.68;;;7.50;77.40;;;;;;6182442;23;20055;-77
2023/12/30 00:52:57;;;;;;;6.00;0.60;;;7.50;77.20;;;;;;6182839;23;20028;-76
2023/12/30 00:55:28;;;;;;;4.70;0.55;;;7.50;77.20;;;;;;6207956;23;20112;-75
2023/12/30 00:57:56;;;;;;;5.17;0.70;;;7.50;77.40;;;;;;6179976;23;20021;-75
2023/12/30 01:00:23;;;;;;;6.00;0.50;;;7.50;77.30;;;;;;6182951;23;20232;-76
2023/12/30 01:02:50;;;;;;;5.18;0.50;;;7.50;77.30;;;;;;6208183;23;20025;-76
2023/12/30 01:05:17;;;;;;;5.97;0.55;;;7.50;77.50;;;;;;6182262;23;20029;-76
2023/12/30 01:07:44;;;;;;;5.18;0.52;;;7.40;77.40;;;;;;6207130;23;20033;-75
2023/12/30 01:10:11;;;;;;;4.27;0.60;;;7.40;77.50;;;;;;6207480;23;20520;-76
2023/12/30 01:12:39;;;;;;;3.25;0.40;;;7.40;77.30;;;;;;6208343;23;20217;-75
2023/12/30 01:15:07;;;;;;;6.70;0.70;;;7.40;77.30;;;;;;6207445;22;20502;-76
2023/12/30 01:17:34;;;;;;;6.18;0.70;;;7.40;77.40;;;;;;6182650;23;20025;-77
2023/12/30 01:20:01;;;;;;;4.93;0.40;;;7.40;77.30;;;;;;6208687;23;20025;-76
2023/12/30 01:22:28;;;;;;;5.03;0.60;;;7.40;77.20;;;;;;6207260;23;20056;-76
2023/12/30 01:24:55;;;;;;;8.43;1.20;;;7.40;77.00;;;;;;6181979;23;20230;-76
2023/12/30 01:27:22;;;;;;;5.57;0.63;;;7.40;76.80;;;;;;6209717;22;20147;-75
2023/12/30 01:29:51;;;;;;;6.15;0.88;;;7.30;76.90;;;;;;6207382;23;20052;-77
2023/12/30 01:32:18;;;;;;;7.22;0.68;;;7.30;76.90;;;;;;6204011;23;20029;-76
2023/12/30 01:34:44;;;;;;;5.00;0.50;;;7.30;76.80;;;;;;6209403;22;20075;-75
2023/12/30 01:37:13;;;;;;;4.18;0.40;;;7.30;76.80;;;;;;6207281;23;20249;-75
2023/12/30 01:39:41;;;;;;;5.25;0.40;;;7.30;76.80;;;;;;6182714;23;20056;-75
2023/12/30 01:42:08;;;;;;;5.72;0.40;;;7.20;76.90;;;;;;6181092;23;20025;-77
2023/12/30 01:44:35;;;;;;;4.97;0.75;;;7.20;76.90;;;;;;6182529;23;20087;-76
2023/12/30 01:47:04;;;;;;;5.43;0.70;;;7.20;76.60;;;;;;6207164;23;20024;-76
2023/12/30 01:49:31;;;;;;;7.03;0.90;;;7.20;76.80;;;;;;6204385;23;20693;-75
2023/12/30 01:51:59;;;;;;;4.03;0.40;;;7.20;76.80;;;;;;6181773;23;20136;-77
2023/12/30 01:54:27;;;;;;;5.47;0.47;;;7.30;76.60;;;;;;6207791;23;20029;-76
2023/12/30 01:56:54;;;;;;;3.25;0.32;;;7.20;76.80;;;;;;6207532;23;20091;-75
2023/12/30 01:59:22;;;;;;;3.13;0.40;;;7.20;76.60;;;;;;6182223;23;20024;-75
2023/12/30 02:01:49;;;;;;;4.88;0.50;;;7.20;76.80;;;;;;6182750;23;20224;-75
2023/12/30 02:04:17;;;;;;;3.42;0.52;;;7.20;76.80;;;;;;6207829;23;20025;-76
2023/12/30 02:06:45;;;;;;;6.30;0.80;;;7.20;76.60;;;;;;6209061;22;20029;-77
2023/12/30 02:09:12;;;;;;;6.28;0.73;;;7.20;76.60;;;;;;6207858;22;20020;-75
2023/12/30 02:11:39;;;;;;;3.73;0.30;;;7.20;76.60;;;;;;6207849;23;20146;-75
2023/12/30 02:14:25;;;;;;;6.38;0.70;;;7.30;76.50;;;;;;6182324;23;20318;-75
2023/12/30 02:16:52;;;;;;;3.90;0.43;;;7.20;76.60;;;;;;6208343;22;20020;-75
2023/12/30 02:19:21;;;;;;;5.45;0.80;;;7.30;76.50;;;;;;6181101;23;20033;-76
2023/12/30 02:21:48;;;;;;;4.90;0.55;;;7.20;76.30;;;;;;6207255;23;20048;-75
2023/12/30 02:24:17;;;;;;;6.77;0.60;;;7.20;76.20;;;;;;6177057;23;20036;-77
2023/12/30 02:26:44;;;;;;;3.90;0.30;;;7.30;76.20;;;;;;6204590;23;20237;-76
2023/12/30 02:29:11;;;;;;;6.30;0.73;;;7.30;76.00;;;;;;6178399;23;20033;-77
2023/12/30 02:31:45;;;;;;;6.07;0.63;;;7.20;76.10;;;;;;6206095;22;20517;-77
2023/12/30 02:34:13;;;;;;;6.55;0.70;;;7.30;76.20;;;;;;6202854;23;20025;-75
2023/12/30 02:36:39;;;;;;;7.00;0.93;;;7.30;76.10;;;;;;6178623;23;20025;-75
2023/12/30 02:39:06;;;;;;;5.72;0.73;;;7.30;76.20;;;;;;6181255;23;20205;-76
2023/12/30 02:41:35;;;;;;;5.75;0.70;;;7.30;76.20;;;;;;6204438;23;20080;-76
2023/12/30 02:44:04;;;;;;;5.80;0.73;;;7.30;75.70;;;;;;6209957;22;20056;-76
2023/12/30 02:46:31;;;;;;;7.32;0.93;;;7.30;75.60;;;;;;6182732;23;20033;-77
2023/12/30 02:49:02;;;;;;;5.87;0.60;;;7.30;75.60;;;;;;6183989;23;20025;-77
2023/12/30 02:51:29;;;;;;;4.82;0.63;;;7.30;75.50;;;;;;6182876;23;20764;-75
2023/12/30 02:53:56;;;;;;;10.02;0.82;;;7.30;75.20;;;;;;6209038;23;20048;-75
2023/12/30 02:56:24;;;;;;;5.93;0.77;;;7.30;75.30;;;;;;6183527;23;20029;-75
2023/12/30 02:58:55;;;;;;;3.90;0.50;;;7.30;75.20;;;;;;6209239;23;20056;-76
2023/12/30 03:01:41;;;;;;;7.07;0.63;;;7.30;75.00;;;;;;6212941;23;20025;-73
2023/12/30 03:04:08;;;;;;;5.03;0.60;;;7.30;75.00;;;;;;6188041;23;20252;-74
2023/12/30 03:06:35;;;;;;;8.32;1.15;;;7.30;74.90;;;;;;6187582;23;20140;-75
2023/12/30 03:09:02;;;;;;;7.80;0.60;;;7.30;74.90;;;;;;6213099;23;20025;-74
2023/12/30 03:11:29;;;;;;;5.30;0.50;;;7.30;75.00;;;;;;6213921;23;20438;-75
2023/12/30 03:13:58;;;;;;;6.13;0.50;;;7.30;75.00;;;;;;6188406;23;20785;-75
2023/12/30 03:16:25;;;;;;;4.97;0.88;;;7.30;74.90;;;;;;6209282;23;20399;-75
2023/12/30 03:18:52;;;;;;;11.93;1.10;;;7.30;74.90;;;;;;6213527;23;20017;-75
2023/12/30 03:21:19;;;;;;;6.10;0.77;;;7.30;74.80;;;;;;6213255;23;20184;-74
2023/12/30 03:23:46;;;;;;;5.63;0.52;;;7.30;74.80;;;;;;6216346;22;20032;-75
2023/12/30 03:26:13;;;;;;;7.60;1.10;;;7.30;74.90;;;;;;6213464;23;20052;-75
2023/12/30 03:28:40;;;;;;;6.95;0.60;;;7.20;75.00;;;;;;6214133;23;20232;-73
2023/12/30 03:31:09;;;;;;;8.32;0.77;;;7.20;75.10;;;;;;6213360;23;20028;-75
2023/12/30 03:33:36;;;;;;;6.43;0.90;;;7.20;75.00;;;;;;6213991;23;20025;-73
2023/12/30 03:36:03;;;;;;;6.30;0.70;;;7.20;75.00;;;;;;6185308;23;20025;-74
2023/12/30 03:38:30;;;;;;;6.80;0.70;;;7.20;75.00;;;;;;6212955;23;20071;-75
2023/12/30 03:40:57;;;;;;;6.32;0.63;;;7.20;74.70;;;;;;6213406;23;20233;-75
2023/12/30 03:43:24;;;;;;;6.40;0.63;;;7.20;74.50;;;;;;6215958;22;20029;-74
2023/12/30 03:45:51;;;;;;;5.30;0.47;;;7.20;74.60;;;;;;6186665;23;20025;-75
2023/12/30 03:48:19;;;;;;;12.40;0.95;;;7.20;74.70;;;;;;6213018;23;20076;-75
2023/12/30 03:50:46;;;;;;;5.37;0.93;;;7.20;74.60;;;;;;6212417;23;20339;-73
2023/12/30 03:53:13;;;;;;;6.68;0.57;;;7.20;74.60;;;;;;6184088;23;20323;-74
2023/12/30 03:55:40;;;;;;;10.57;0.75;;;7.20;74.70;;;;;;6212171;23;20832;-75
2023/12/30 03:58:07;;;;;;;8.30;0.80;;;7.20;74.80;;;;;;6186786;23;20029;-73
2023/12/30 04:00:35;;;;;;;4.25;0.30;;;7.20;75.00;;;;;;6186440;23;20025;-73
2023/12/30 04:03:02;;;;;;;5.70;0.73;;;7.20;74.80;;;;;;6185949;23;20029;-74
2023/12/30 04:05:31;;;;;;;8.55;0.77;;;7.20;74.70;;;;;;6213439;23;20234;-74
2023/12/30 04:07:58;;;;;;;10.00;1.00;;;7.20;74.50;;;;;;6213071;23;20117;-75
2023/12/30 04:10:25;;;;;;;6.15;0.52;;;7.20;74.60;;;;;;6207845;23;20076;-75
2023/12/30 04:12:52;;;;;;;5.55;0.80;;;7.20;74.70;;;;;;6212071;23;20021;-74
2023/12/30 04:15:21;;;;;;;9.57;0.80;;;7.20;74.60;;;;;;6211887;23;20064;-75
2023/12/30 04:17:49;;;;;;;4.47;0.82;;;7.20;74.50;;;;;;6186528;23;20213;-73
2023/12/30 04:20:16;;;;;;;6.80;1.20;;;7.20;74.50;;;;;;6210561;23;20096;-75
2023/12/30 04:22:44;;;;;;;7.10;0.90;;;7.20;74.30;;;;;;6186820;23;20028;-75
2023/12/30 04:25:12;;;;;;;5.13;0.55;;;7.10;74.20;;;;;;6212124;23;20052;-73
2023/12/30 04:27:39;;;;;;;7.97;0.77;;;7.10;73.90;;;;;;6183741;23;20663;-75
2023/12/30 04:30:08;;;;;;;5.00;0.80;;;7.10;74.10;;;;;;6186036;23;20237;-75
2023/12/30 04:32:36;;;;;;;5.88;0.57;;;7.00;74.10;;;;;;6186734;23;20040;-75
2023/12/30 04:35:05;;;;;;;9.18;0.82;;;7.00;74.20;;;;;;6186599;23;20032;-75
2023/12/30 04:37:32;;;;;;;5.82;0.68;;;7.00;74.20;;;;;;6187137;23;20040;-75
2023/12/30 04:40:01;;;;;;;8.80;0.77;;;7.00;74.30;;;;;;6186897;23;20025;-75
2023/12/30 04:42:28;;;;;;;5.95;0.60;;;7.00;74.30;;;;;;6186614;23;20237;-73
2023/12/30 04:44:55;;;;;;;9.32;0.98;;;7.00;74.30;;;;;;6182816;23;20024;-74
2023/12/30 04:47:22;;;;;;;8.50;1.75;;;7.00;74.40;;;;;;6211220;23;20072;-75
2023/12/30 04:49:49;;;;;;;8.23;1.13;;;7.00;74.30;;;;;;6185860;23;20470;-74
2023/12/30 04:52:16;;;;;;;11.13;1.30;;;7.00;74.50;;;;;;6184756;23;20033;-75
2023/12/30 04:54:43;;;;;;;12.45;1.70;;;7.00;74.60;;;;;;6211442;23;20236;-75
2023/12/30 04:57:12;;;;;;;7.38;0.75;;;7.00;74.70;;;;;;6211694;23;20048;-74
2023/12/30 04:59:39;;;;;;;5.43;0.68;;;7.00;75.00;;;;;;6185661;23;20885;-75
2023/12/30 05:02:06;;;;;;;11.23;1.00;;;7.00;75.10;;;;;;6206718;23;20053;-75
2023/12/30 05:04:34;;;;;;;9.50;1.20;;;7.00;75.30;;;;;;6211679;23;20053;-74
2023/12/30 05:07:01;;;;;;;10.23;1.05;;;7.00;75.40;;;;;;6185322;23;20225;-74
2023/12/30 05:09:28;;;;;;;7.80;1.00;;;7.00;75.50;;;;;;6209825;23;20025;-73
2023/12/30 05:11:56;;;;;;;7.18;0.60;;;7.00;75.50;;;;;;6183140;23;20025;-75
2023/12/30 05:14:24;;;;;;;7.57;0.93;;;6.90;75.70;;;;;;6185551;23;20040;-75
2023/12/30 05:16:51;;;;;;;5.43;0.60;;;6.90;75.90;;;;;;6185031;23;20029;-75
2023/12/30 05:19:18;;;;;;;9.73;0.80;;;6.90;76.10;;;;;;6182276;23;20217;-74
2023/12/30 05:21:49;;;;;;;9.95;1.00;;;6.90;76.20;;;;;;6184690;23;20037;-75
2023/12/30 05:24:16;;;;;;;10.05;1.23;;;6.90;76.30;;;;;;6211129;23;20028;-74
2023/12/30 05:26:43;;;;;;;5.88;0.55;;;6.80;76.50;;;;;;6209973;23;20848;-74
2023/12/30 05:29:10;;;;;;;7.77;0.67;;;6.80;76.80;;;;;;6210887;23;20061;-73
2023/12/30 05:31:38;;;;;;;3.15;0.40;;;6.80;76.80;;;;;;6184364;23;20237;-75
2023/12/30 05:34:06;;;;;;;7.63;0.90;;;6.80;77.00;;;;;;6210928;23;20478;-73
2023/12/30 05:36:34;;;;;;;8.77;0.70;;;6.80;77.20;;;;;;6182391;23;20036;-75
2023/12/30 05:39:01;;;;;;;5.07;0.65;;;6.70;77.30;;;;;;6212699;23;20020;-73
2023/12/30 05:41:28;;;;;;;10.43;1.30;;;6.70;77.60;;;;;;6184024;23;20037;-74
2023/12/30 05:43:55;;;;;;;8.75;1.10;;;6.70;77.70;;;;;;6210803;23;20291;-73
2023/12/30 05:46:22;;;;;;;8.10;0.80;;;6.70;77.80;;;;;;6209050;23;20040;-74
2023/12/30 05:48:50;;;;;;;7.63;0.80;;;6.70;77.90;;;;;;6184775;23;20025;-74
2023/12/30 05:51:17;;;;;;;5.78;0.98;;;6.70;78.10;;;;;;6183510;23;20556;-74
2023/12/30 05:53:44;;;;;;;9.53;1.00;;;6.70;78.30;;;;;;6206471;23;20024;-74
2023/12/30 05:56:11;;;;;;;4.97;0.47;;;6.70;78.30;;;;;;6212031;22;20213;-75
2023/12/30 05:58:38;;;;;;;7.82;0.60;;;6.70;78.40;;;;;;6210078;23;20514;-76
2023/12/30 06:01:05;;;;;;;9.25;0.63;;;6.70;78.50;;;;;;6207710;23;20025;-73
2023/12/30 06:03:35;;;;;;;6.30;0.60;;;6.70;78.50;;;;;;6210686;23;20017;-74
2023/12/30 06:06:04;;;;;;;6.60;0.47;;;6.70;78.60;;;;;;6209310;23;20025;-74
2023/12/30 06:08:32;;;;;;;6.65;1.20;;;6.70;78.60;;;;;;6209200;23;21243;-75
2023/12/30 06:11:00;;;;;;;8.10;0.90;;;6.70;78.60;;;;;;6207684;23;20048;-74
2023/12/30 06:13:26;;;;;;;6.38;0.73;;;6.70;78.80;;;;;;6206286;23;20029;-75
2023/12/30 06:15:56;;;;;;;11.13;0.98;;;6.70;78.70;;;;;;6207622;23;20108;-74
2023/12/30 06:18:26;;;;;;;7.03;0.80;;;6.70;78.80;;;;;;6181013;23;20027;-73
2023/12/30 06:20:53;;;;;;;11.65;0.85;;;6.70;78.70;;;;;;6204438;23;20233;-74
2023/12/30 06:23:22;;;;;;;9.25;1.17;;;6.70;78.60;;;;;;6180781;23;20040;-74
2023/12/30 06:25:49;;;;;;;9.43;1.30;;;6.70;78.60;;;;;;6207170;23;20017;-75
2023/12/30 06:28:16;;;;;;;10.13;1.05;;;6.70;78.60;;;;;;6210946;22;20025;-74
2023/12/30 06:30:43;;;;;;;12.40;1.03;;;6.70;78.50;;;;;;6175946;23;20084;-75
2023/12/30 06:33:10;;;;;;;10.05;1.00;;;6.80;78.30;;;;;;6203946;23;20248;-75
2023/12/30 06:35:37;;;;;;;7.25;0.82;;;6.70;78.20;;;;;;6203164;23;20112;-75
2023/12/30 06:38:04;;;;;;;8.05;0.95;;;6.70;78.30;;;;;;6205354;22;20717;-75
2023/12/30 06:40:33;;;;;;;10.57;1.10;;;6.80;78.20;;;;;;6205025;22;21296;-75
2023/12/30 06:43:00;;;;;;;9.83;1.33;;;6.80;78.20;;;;;;6203563;23;20021;-75
2023/12/30 06:45:27;;;;;;;8.80;0.93;;;6.70;78.30;;;;;;6206389;23;20248;-74
2023/12/30 06:47:54;;;;;;;7.22;0.75;;;6.70;78.20;;;;;;6179444;23;20029;-74
2023/12/30 06:50:22;;;;;;;6.38;0.52;;;6.70;78.40;;;;;;6204628;23;20034;-74
2023/12/30 06:52:49;;;;;;;9.75;1.15;;;6.80;78.20;;;;;;6205244;23;20029;-74
2023/12/30 06:55:16;;;;;;;10.00;1.30;;;6.80;78.20;;;;;;6205175;23;20021;-75
2023/12/30 06:57:45;;;;;;;10.98;0.70;;;6.80;78.00;;;;;;6202399;23;20221;-74
2023/12/30 07:00:12;;;;;;;9.75;0.80;;;6.80;78.00;;;;;;6205256;23;20052;-75
2023/12/30 07:02:41;;;;;;;10.38;1.38;;;6.80;78.10;;;;;;6205972;23;20028;-74
2023/12/30 07:05:08;;;;;;;8.07;1.00;;;6.80;78.20;;;;;;6204274;23;20025;-75
2023/12/30 07:07:35;;;;;;;7.60;0.80;;;6.80;78.20;;;;;;6201916;23;20021;-74
2023/12/30 07:10:04;;;;;;;10.35;1.13;;;6.80;78.20;;;;;;6206538;22;20225;-75
2023/12/30 07:12:31;;;;;;;6.15;1.20;;;6.70;78.30;;;;;;6208675;22;20025;-74
2023/12/30 07:14:59;;;;;;;7.80;0.85;;;6.70;78.30;;;;;;6181707;23;20104;-74
2023/12/30 07:17:27;;;;;;;8.27;0.90;;;6.70;78.40;;;;;;6209055;22;20028;-74
2023/12/30 07:19:53;;;;;;;8.13;0.70;;;6.60;78.50;;;;;;6206341;23;20025;-75
2023/12/30 07:22:21;;;;;;;8.95;1.00;;;6.60;78.50;;;;;;6203869;23;21205;-75
2023/12/30 07:24:47;;;;;;;10.13;1.20;;;6.50;78.60;;;;;;6202828;23;20055;-74
2023/12/30 07:27:15;;;;;;;7.75;1.10;;;6.50;78.70;;;;;;6206076;22;20052;-75
2023/12/30 07:29:42;;;;;;;7.78;0.95;;;6.50;78.70;;;;;;6204639;22;20701;-75
2023/12/30 07:32:10;;;;;;;10.03;1.40;;;6.50;78.70;;;;;;6202452;23;20021;-75
2023/12/30 07:34:37;;;;;;;6.10;0.85;;;6.50;78.80;;;;;;6206206;22;20233;-75
2023/12/30 07:37:04;;;;;;;7.30;0.90;;;6.40;78.80;;;;;;6202561;23;20025;-75
2023/12/30 07:39:33;;;;;;;7.25;1.02;;;6.40;78.80;;;;;;6204431;23;20049;-75
2023/12/30 07:42:00;;;;;;;9.40;1.20;;;6.30;78.90;;;;;;6204315;22;20136;-75
2023/12/30 07:44:29;;;;;;;10.33;0.93;;;6.30;79.00;;;;;;6207574;23;20100;-74
2023/12/30 07:46:56;;;;;;;8.23;0.85;;;6.20;79.00;;;;;;6182228;23;20225;-75
2023/12/30 07:49:24;;;;;;;6.38;0.82;;;6.20;79.10;;;;;;6206901;23;20108;-74
2023/12/30 07:51:53;;;;;;;7.60;1.00;;;6.20;79.40;;;;;;6209493;22;20048;-74
2023/12/30 07:54:20;;;;;;;8.00;0.77;;;6.20;79.40;;;;;;6207294;23;20048;-74
2023/12/30 07:56:47;;;;;;;6.40;0.80;;;6.10;79.50;;;;;;6207578;23;20095;-74
2023/12/30 07:59:14;;;;;;;10.15;1.27;;;6.10;79.50;;;;;;6207294;23;20713;-74
2023/12/30 08:01:44;;;;;;;6.88;0.80;;;6.10;79.70;;;;;;6181900;23;20064;-74
2023/12/30 08:04:13;;;;;;;8.45;1.02;;;6.00;79.70;;;;;;6207364;23;20027;-75
2023/12/30 08:06:42;;;;;;;6.03;0.80;;;6.00;79.80;;;;;;6207982;22;20158;-74
2023/12/30 08:09:11;;;;;;;7.37;0.80;;;6.00;79.80;;;;;;6208206;22;20024;-77
2023/12/30 08:11:38;;;;;;;8.48;1.25;;;6.00;80.00;;;;;;6204854;23;20249;-75
2023/12/30 08:14:05;;;;;;;7.38;0.68;;;6.00;80.10;;;;;;6203629;23;20024;-74
2023/12/30 08:16:33;;;;;;;8.52;1.10;;;6.00;80.20;;;;;;6200834;23;20025;-76
2023/12/30 08:19:00;;;;;;;5.80;0.90;;;6.00;80.20;;;;;;6203992;23;20653;-76
2023/12/30 08:21:27;;;;;;;8.17;1.47;;;6.00;80.10;;;;;;6178111;23;20522;-77
2023/12/30 08:23:56;;;;;;;9.07;1.00;;;5.90;80.40;;;;;;6178819;23;20300;-75
2023/12/30 08:26:24;;;;;;;7.15;0.80;;;5.90;80.50;;;;;;6179020;23;20033;-75
2023/12/30 08:28:52;;;;;;;7.32;0.60;;;5.90;80.70;;;;;;6206950;22;20029;-75
2023/12/30 08:31:19;;;;;;;10.18;0.70;;;5.90;80.80;;;;;;6205534;23;20060;-77
2023/12/30 08:33:46;;;;;;;8.40;0.90;;;6.00;80.80;;;;;;6203685;23;20470;-78
2023/12/30 08:36:13;;;;;;;6.72;0.63;;;6.00;80.80;;;;;;6207242;23;20233;-76
2023/12/30 08:38:40;;;;;;;8.98;0.93;;;5.90;80.80;;;;;;6207163;23;20021;-76
2023/12/30 08:41:10;;;;;;;7.45;1.13;;;5.90;80.80;;;;;;6181698;23;20501;-77
2023/12/30 08:43:37;;;;;;;6.60;0.93;;;5.90;80.90;;;;;;6180987;23;20056;-76
2023/12/30 08:46:04;;;;;;;10.33;1.10;;;6.00;80.90;;;;;;6206887;23;20067;-76
2023/12/30 08:48:31;;;;;;;9.02;1.27;;;5.90;80.90;;;;;;6207463;23;20243;-76
2023/12/30 08:50:58;;;;;;;7.20;1.33;;;6.00;81.00;;;;;;6206475;22;20021;-77
2023/12/30 08:53:25;;;;;;;7.65;1.17;;;6.00;81.00;;;;;;6182281;23;20113;-77
2023/12/30 08:55:53;;;;;;;7.28;0.80;;;6.00;80.80;;;;;;6206597;23;20021;-77
2023/12/30 08:58:23;;;;;;;7.47;1.10;;;6.00;80.80;;;;;;6207529;23;20071;-76
2023/12/30 09:00:51;;;;;;;8.55;1.35;;;6.00;80.90;;;;;;6181972;23;20244;-77
2023/12/30 09:03:18;;;;;;;5.95;1.00;;;6.00;81.00;;;;;;6209192;22;20029;-77
2023/12/30 09:05:44;;;;;;;8.75;0.90;;;6.00;81.10;;;;;;6181926;23;20456;-76
2023/12/30 09:08:11;;;;;;;8.38;1.10;;;6.00;81.00;;;;;;6204643;23;20412;-76
2023/12/30 09:10:39;;;;;;;7.50;1.00;;;6.10;81.00;;;;;;6206821;23;20416;-77
2023/12/30 09:13:06;;;;;;;7.78;0.90;;;6.10;80.90;;;;;;6207802;23;20263;-77
2023/12/30 09:15:34;;;;;;;6.57;0.80;;;6.10;81.00;;;;;;6207222;23;20028;-76
2023/12/30 09:18:01;;;;;;;6.53;0.70;;;6.10;80.90;;;;;;6208965;22;20627;-77
2023/12/30 09:20:28;;;;;;;7.22;0.95;;;6.10;80.90;;;;;;6182082;23;20152;-78
2023/12/30 09:22:55;;;;;;;6.07;0.83;;;6.10;81.00;;;;;;6209779;22;20640;-77
2023/12/30 09:25:24;;;;;;;11.02;1.20;;;6.10;80.80;;;;;;6207395;23;20265;-77
2023/12/30 09:27:51;;;;;;;9.10;1.15;;;6.10;80.80;;;;;;6204695;23;20754;-77
2023/12/30 09:30:18;;;;;;;7.53;0.85;;;6.10;80.80;;;;;;6207110;23;20466;-77
2023/12/30 09:32:46;;;;;;;8.02;0.90;;;6.20;80.70;;;;;;6206266;23;20025;-77
2023/12/30 09:35:13;;;;;;;6.53;0.77;;;6.20;80.70;;;;;;6209294;22;20232;-76
2023/12/30 09:37:40;;;;;;;7.68;0.95;;;6.20;80.70;;;;;;6209913;22;20595;-76
2023/12/30 09:40:08;;;;;;;9.77;1.08;;;6.20;80.70;;;;;;6206921;23;20021;-77
2023/12/30 09:42:37;;;;;;;9.00;1.17;;;6.20;80.70;;;;;;6206556;23;20021;-76
2023/12/30 09:45:06;;;;;;;6.43;0.60;;;6.30;80.60;;;;;;6204677;23;20028;-76
2023/12/30 09:47:34;;;;;;;7.03;0.87;;;6.30;80.60;;;;;;6207118;23;20033;-77
2023/12/30 09:50:03;;;;;;;8.80;0.93;;;6.30;80.50;;;;;;6206765;23;20298;-77
2023/12/30 09:52:30;;;;;;;7.03;0.70;;;6.30;80.50;;;;;;6206455;23;20115;-77
2023/12/30 09:54:57;;;;;;;5.93;0.88;;;6.40;80.50;;;;;;6209260;22;20021;-76
2023/12/30 09:57:24;;;;;;;7.00;0.88;;;6.40;80.50;;;;;;6179478;23;20084;-76
2023/12/30 09:59:52;;;;;;;8.33;1.10;;;6.40;80.40;;;;;;6206426;23;20569;-76
2023/12/30 10:02:19;;;;;;;8.70;1.13;;;6.50;80.20;;;;;;6201980;23;20236;-75
2023/12/30 10:04:49;;;;;;;6.55;1.10;;;6.50;80.30;;;;;;6180946;23;20087;-76
2023/12/30 10:07:17;;;;;;;7.82;1.05;;;6.50;80.30;;;;;;6208572;22;20033;-76
2023/12/30 10:09:46;;;;;;;9.68;1.25;;;6.50;80.40;;;;;;6206708;22;20049;-77
2023/12/30 10:12:12;;;;;;;10.20;1.30;;;6.60;80.40;;;;;;6204907;23;20021;-76
2023/12/30 10:14:39;;;;;;;7.10;1.30;;;6.60;80.30;;;;;;6206362;23;20229;-76
2023/12/30 10:17:06;;;;;;;7.75;1.20;;;6.60;80.20;;;;;;6203779;22;20506;-78
2023/12/30 10:19:33;;;;;;;10.68;1.60;;;6.70;80.20;;;;;;6199248;23;20493;-77
2023/12/30 10:22:00;;;;;;;9.50;1.77;;;6.70;80.20;;;;;;6179380;23;20029;-78
2023/12/30 10:24:28;;;;;;;8.20;1.30;;;6.70;80.20;;;;;;6205456;23;20025;-77
2023/12/30 10:26:58;;;;;;;12.07;1.85;;;6.80;80.10;;;;;;6203152;23;20245;-77
2023/12/30 10:29:25;;;;;;;7.60;0.90;;;6.80;80.00;;;;;;6180838;23;20029;-77
2023/12/30 10:32:03;;;;;;;7.63;1.10;;;6.80;80.00;;;;;;6176676;23;20313;-77
2023/12/30 10:34:31;;;;;;;5.65;1.20;;;6.80;80.10;;;;;;6201499;23;20478;-77
2023/12/30 10:37:00;;;;;;;9.40;1.53;;;6.90;80.00;;;;;;6200841;23;20025;-76
2023/12/30 10:39:34;;;;;;;10.38;2.08;;;6.90;80.10;;;;;;6203473;23;20249;-75
2023/12/30 10:42:01;;;;;;;10.45;1.55;;;6.90;80.20;;;;;;6204035;23;20793;-75
2023/12/30 10:44:28;;;;;;;8.10;1.70;;;7.00;80.10;;;;;;6202746;23;20834;-75
2023/12/30 10:46:56;;;;;;;11.25;2.00;;;7.00;80.00;;;;;;6179905;23;20029;-74
2023/12/30 10:49:25;;;;;;;10.33;2.07;;;7.00;80.10;;;;;;6206760;23;20021;-76
2023/12/30 10:51:55;;;;;;;9.02;2.13;;;7.10;80.00;;;;;;6205366;22;20212;-75
2023/12/30 10:54:32;;;;;;;7.47;1.63;;;7.10;80.10;;;;;;6203823;23;20100;-75
2023/12/30 10:57:03;;;;;;;9.13;2.10;;;7.20;80.20;;;;;;6206785;22;20088;-73
2023/12/30 10:59:30;;;;;;;11.75;2.53;;;7.20;80.10;;;;;;6181860;23;20025;-72
2023/12/30 11:01:58;;;;;;;9.97;2.10;;;7.20;80.30;;;;;;6203624;23;20446;-72
2023/12/30 11:04:26;;;;;;;11.35;2.38;;;7.30;80.10;;;;;;6205205;23;20674;-72
2023/12/30 11:06:55;;;;;;;11.20;2.67;;;7.30;80.10;;;;;;6178147;23;20064;-75
2023/12/30 11:09:23;;;;;;;12.13;2.83;;;7.40;80.10;;;;;;6207552;23;20549;-74
2023/12/30 11:11:53;;;;;;;9.43;2.55;;;7.40;80.10;;;;;;6180972;23;20017;-73
2023/12/30 11:14:20;;;;;;;12.63;3.10;;;7.40;80.10;;;;;;6180843;23;20374;-73
2023/12/30 11:16:50;;;;;;;10.13;2.30;;;7.50;80.10;;;;;;6175619;23;20254;-75
2023/12/30 11:19:27;;;;;;;11.15;2.25;;;7.50;80.10;;;;;;6208962;23;20032;-74
2023/12/30 11:21:54;;;;;;;13.65;2.40;;;7.50;80.10;;;;;;6180502;23;20044;-74
2023/12/30 11:24:22;;;;;;;10.20;2.15;;;7.50;80.30;;;;;;6206451;22;20509;-74
2023/12/30 11:26:52;;;;;;;12.10;2.30;;;7.50;80.60;;;;;;6177564;23;20025;-73
2023/12/30 11:29:24;;;;;;;9.95;2.47;;;7.60;80.70;;;;;;6181213;23;20328;-73
2023/12/30 11:31:53;;;;;;;8.35;1.83;;;7.60;80.80;;;;;;6208708;22;20025;-73
2023/12/30 11:34:20;;;;;;;9.10;1.98;;;7.60;81.10;;;;;;6180289;23;20068;-73
2023/12/30 11:36:49;;;;;;;8.45;2.03;;;7.80;81.20;;;;;;6204757;23;20032;-73
2023/12/30 11:39:24;;;;;;;8.23;2.20;;;7.80;81.20;;;;;;6207413;22;20080;-73
2023/12/30 11:41:53;;;;;;;8.82;1.70;;;7.90;81.40;;;;;;6207174;22;20272;-73
2023/12/30 11:44:22;;;;;;;9.57;1.95;;;8.00;81.30;;;;;;6205305;23;20373;-73
2023/12/30 11:46:50;;;;;;;11.50;2.00;;;8.00;81.10;;;;;;6205529;23;20025;-74
2023/12/30 11:49:21;;;;;;;14.23;2.10;;;8.00;81.00;;;;;;6207906;22;20021;-74
2023/12/30 11:51:49;;;;;;;5.77;1.60;;;8.10;80.70;;;;;;6202526;23;20032;-74
2023/12/30 11:54:16;;;;;;;9.15;1.90;;;8.20;80.30;;;;;;6208512;23;20229;-75
2023/12/30 11:56:43;;;;;;;6.85;1.73;;;8.20;80.20;;;;;;6208048;23;20025;-75
2023/12/30 11:59:10;;;;;;;11.68;2.05;;;8.30;80.20;;;;;;6207871;22;20521;-75
2023/12/30 12:01:39;;;;;;;9.93;2.00;;;8.30;80.20;;;;;;6179225;23;20115;-74
2023/12/30 12:04:06;;;;;;;8.97;1.73;;;8.30;79.90;;;;;;6205762;23;20028;-74
2023/12/30 12:06:33;;;;;;;6.47;1.42;;;8.40;79.60;;;;;;6205490;23;20784;-74
2023/12/30 12:09:04;;;;;;;11.68;2.33;;;8.40;79.40;;;;;;6203661;23;20021;-76
2023/12/30 12:11:31;;;;;;;9.25;2.17;;;8.40;79.70;;;;;;6208331;22;20708;-75
2023/12/30 12:13:58;;;;;;;8.15;1.92;;;8.50;79.60;;;;;;6183828;23;20018;-74
2023/12/30 12:16:27;;;;;;;9.73;2.17;;;8.50;79.50;;;;;;6182881;23;20043;-74
2023/12/30 12:18:57;;;;;;;5.95;1.13;;;8.50;79.70;;;;;;6207828;23;20303;-76
2023/12/30 12:21:26;;;;;;;9.75;1.52;;;8.50;79.70;;;;;;6208306;23;20025;-75
2023/12/30 12:23:54;;;;;;;8.15;1.52;;;8.60;79.70;;;;;;6184131;23;20442;-76
2023/12/30 12:26:22;;;;;;;8.02;1.38;;;8.60;79.40;;;;;;6204318;23;20216;-75
2023/12/30 12:28:49;;;;;;;10.73;1.80;;;8.60;79.50;;;;;;6207677;23;20021;-74
2023/12/30 12:31:18;;;;;;;9.57;2.30;;;8.60;79.20;;;;;;6207586;23;20970;-75
2023/12/30 12:33:45;;;;;;;12.55;2.70;;;8.60;79.30;;;;;;6182842;23;20048;-73
2023/12/30 12:36:13;;;;;;;9.05;2.58;;;8.60;79.40;;;;;;6205683;22;20025;-74
2023/12/30 12:38:40;;;;;;;9.60;2.60;;;8.60;79.40;;;;;;6207905;23;20985;-74
2023/12/30 12:41:07;;;;;;;13.87;2.80;;;8.60;79.50;;;;;;6182307;23;20112;-76
2023/12/30 12:43:34;;;;;;;11.75;2.75;;;8.60;79.60;;;;;;6180988;23;20265;-74
2023/12/30 12:46:02;;;;;;;9.88;2.70;;;8.60;79.80;;;;;;6203614;22;20025;-73
2023/12/30 12:48:29;;;;;;;7.88;2.35;;;8.60;80.00;;;;;;6180392;23;20772;-75
2023/12/30 12:50:56;;;;;;;14.10;3.00;;;8.60;80.10;;;;;;6182078;23;20029;-76
2023/12/30 12:53:25;;;;;;;14.20;2.77;;;8.60;80.20;;;;;;6204865;23;20500;-77
2023/12/30 12:55:53;;;;;;;11.15;2.30;;;8.60;80.20;;;;;;6205493;23;20271;-75
2023/12/30 12:58:20;;;;;;;8.88;2.38;;;8.60;80.30;;;;;;6204956;23;20025;-74